aviador You're here:

SGES Decoded Metar

GUARANY in PARAGUAY
Report Time2017-08-24 08:00:00
UTC Time2017-08-24 08:53:06
Flight Rules vfr VFR
Wind070° at 06 Gusting to 16 kt
W.Decomp.*RWY 05: 4.9 kt HW 3.4 kt RCW
W.Rank070° ranks 8
Current wind is below 070° avg. (6.9)
Visibility9999 m
Phenomena:N/A
Clouds:N/A
Expected CloudBase > 1,200 ft AGL from Temp-Dew spread
CeilingNone
Temp20°C (ISA +11)
Dew Point17°C (83% RH)
QNH1015 hPa
Density Alt4,213 ft
Elevation2,785 ft
Report Wrong Elevation
Raw Report
SGES 240800Z 07006G16KT CAVOK 20/17 Q1015=

Extra information for SGES:More info

Metar Taf Metar & Taf Last 4 Metars F.Rules Stats Wind Profile Meteogram Temp Stats Airport Information Weather charts Add Link Nearby VenuesMetar ALERT Operation Metar Decoded Social comments